createdAt,value
2022-08-26T00:02:01.429Z,2.80
2022-08-26T00:04:29.070Z,2.60
2022-08-26T00:06:56.717Z,2.70
2022-08-26T00:09:25.929Z,2.80
2022-08-26T00:11:54.101Z,2.90
2022-08-26T00:14:28.302Z,3.20
2022-08-26T00:16:58.682Z,2.40
2022-08-26T00:19:25.928Z,2.70
2022-08-26T00:21:53.733Z,3.10
2022-08-26T00:24:21.347Z,3.20
2022-08-26T00:26:49.680Z,2.90
2022-08-26T00:29:17.830Z,2.80
2022-08-26T00:31:45.655Z,2.70
2022-08-26T00:34:13.981Z,3.60
2022-08-26T00:36:43.540Z,2.70
2022-08-26T00:39:11.380Z,3.00
2022-08-26T00:41:40.790Z,2.60
2022-08-26T00:44:10.619Z,2.70
2022-08-26T00:46:53.396Z,2.80
2022-08-26T00:49:40.296Z,3.00
2022-08-26T00:52:14.419Z,2.80
2022-08-26T00:54:53.329Z,2.80
2022-08-26T00:57:22.121Z,2.70
2022-08-26T01:02:22.371Z,2.70
2022-08-26T01:05:00.286Z,2.90
2022-08-26T01:07:31.236Z,2.90
2022-08-26T01:10:06.400Z,3.30
2022-08-26T01:12:40.650Z,2.70
2022-08-26T01:15:20.049Z,2.90
2022-08-26T01:17:47.470Z,3.30
2022-08-26T01:20:36.496Z,3.00
2022-08-26T01:23:10.280Z,3.70
2022-08-26T01:25:43.557Z,3.50
2022-08-26T01:28:22.606Z,3.00
2022-08-26T01:30:52.801Z,3.20
2022-08-26T01:33:29.486Z,3.40
2022-08-26T01:35:56.706Z,3.20
2022-08-26T01:38:24.432Z,3.60
2022-08-26T01:40:54.525Z,3.40
2022-08-26T01:43:27.100Z,3.00
2022-08-26T01:45:56.533Z,3.40
2022-08-26T01:48:28.408Z,3.60
2022-08-26T01:50:56.894Z,3.60
2022-08-26T01:53:25.148Z,3.70
2022-08-26T01:55:56.808Z,2.90
2022-08-26T01:58:36.241Z,3.50
2022-08-26T02:01:03.859Z,3.20
2022-08-26T02:03:32.530Z,3.20
2022-08-26T02:06:09.237Z,3.10
2022-08-26T02:08:49.945Z,3.20
2022-08-26T02:11:18.554Z,3.20
2022-08-26T02:13:51.845Z,3.20
2022-08-26T02:16:25.771Z,3.10
2022-08-26T02:18:55.220Z,3.50
2022-08-26T02:21:22.509Z,3.50
2022-08-26T02:23:53.320Z,3.00
2022-08-26T02:26:26.892Z,3.30
2022-08-26T02:29:05.117Z,3.30
2022-08-26T02:31:35.108Z,3.30
2022-08-26T02:34:10.838Z,3.10
2022-08-26T02:36:39.094Z,3.20
2022-08-26T02:39:08.221Z,3.00
2022-08-26T02:41:35.912Z,3.60
2022-08-26T02:44:12.738Z,3.20
2022-08-26T02:46:40.681Z,3.30
2022-08-26T02:49:09.499Z,3.10
2022-08-26T02:51:38.243Z,3.60
2022-08-26T02:54:07.748Z,3.30
2022-08-26T02:56:35.308Z,3.10
2022-08-26T02:59:03.270Z,3.10
2022-08-26T03:01:34.276Z,3.10
2022-08-26T03:04:04.943Z,3.70
2022-08-26T03:06:33.217Z,3.10
2022-08-26T03:09:00.373Z,3.70
2022-08-26T03:11:30.935Z,3.80
2022-08-26T03:14:03.662Z,3.20
2022-08-26T03:16:34.992Z,3.10
2022-08-26T03:19:05.444Z,3.30
2022-08-26T03:21:34.240Z,3.20
2022-08-26T03:24:03.878Z,3.30
2022-08-26T03:26:31.542Z,3.40
2022-08-26T03:29:17.204Z,3.40
2022-08-26T03:31:45.109Z,3.50
2022-08-26T03:34:15.800Z,3.60
2022-08-26T03:36:43.360Z,3.20
2022-08-26T03:39:13.372Z,3.80
2022-08-26T03:41:43.902Z,3.20
2022-08-26T03:44:11.560Z,3.20
2022-08-26T03:46:39.645Z,3.30
2022-08-26T03:49:07.528Z,3.20
2022-08-26T03:51:38.631Z,3.00
2022-08-26T03:54:08.170Z,3.20
2022-08-26T03:56:36.301Z,3.20
2022-08-26T03:59:05.322Z,3.20
2022-08-26T04:01:35.515Z,3.20
2022-08-26T04:04:04.012Z,3.30
2022-08-26T04:06:38.951Z,3.50
2022-08-26T04:09:14.089Z,3.30
2022-08-26T04:11:44.844Z,3.70
2022-08-26T04:14:20.119Z,3.00
2022-08-26T04:16:48.443Z,3.70
2022-08-26T04:19:17.213Z,3.20
2022-08-26T04:21:46.934Z,3.60
2022-08-26T04:24:16.513Z,3.10
2022-08-26T04:26:45.157Z,3.50
2022-08-26T04:29:20.352Z,3.00
2022-08-26T04:31:47.791Z,3.30
2022-08-26T04:34:16.410Z,2.90
2022-08-26T04:36:44.398Z,3.20
2022-08-26T04:39:16.258Z,3.00
2022-08-26T04:41:44.503Z,3.10
2022-08-26T04:44:12.682Z,3.10
2022-08-26T04:46:43.877Z,2.90
2022-08-26T04:49:12.552Z,2.80
2022-08-26T04:51:40.326Z,3.00
2022-08-26T04:54:08.550Z,3.20
2022-08-26T04:59:16.784Z,3.10
2022-08-26T05:01:52.011Z,2.90
2022-08-26T05:04:20.833Z,3.30
2022-08-26T05:06:49.119Z,3.40
2022-08-26T05:09:18.071Z,4.00
2022-08-26T05:11:45.968Z,3.50
2022-08-26T05:14:22.677Z,3.10
2022-08-26T05:16:50.678Z,3.40
2022-08-26T05:19:19.186Z,3.20
2022-08-26T05:21:48.113Z,3.10
2022-08-26T05:24:16.901Z,3.20
2022-08-26T05:26:44.904Z,3.40
2022-08-26T05:29:13.841Z,3.20
2022-08-26T05:31:41.158Z,4.40
2022-08-26T05:34:08.658Z,3.50
2022-08-26T05:36:37.095Z,3.00
2022-08-26T05:39:05.850Z,3.10
2022-08-26T05:41:38.403Z,3.30
2022-08-26T05:44:12.393Z,3.50
2022-08-26T05:46:40.829Z,3.40
2022-08-26T05:49:12.577Z,3.50
2022-08-26T05:51:44.696Z,3.50
2022-08-26T05:54:14.288Z,3.50
2022-08-26T05:56:52.564Z,3.10
2022-08-26T05:59:24.035Z,3.50
2022-08-26T06:01:54.073Z,3.60
2022-08-26T06:04:23.200Z,3.20
2022-08-26T06:06:53.899Z,3.60
2022-08-26T06:09:21.262Z,3.70
2022-08-26T06:11:48.625Z,3.20
2022-08-26T06:14:17.488Z,3.70
2022-08-26T06:16:45.686Z,3.90
2022-08-26T06:19:15.109Z,3.60
2022-08-26T06:21:45.997Z,3.20
2022-08-26T06:24:33.006Z,3.70
2022-08-26T06:27:04.786Z,5.00
2022-08-26T06:29:34.622Z,3.60
2022-08-26T06:32:04.359Z,3.50
2022-08-26T06:34:32.214Z,3.50
2022-08-26T06:37:05.553Z,4.40
2022-08-26T06:39:34.180Z,3.70
2022-08-26T06:42:02.736Z,4.00
2022-08-26T06:44:34.066Z,4.30
2022-08-26T06:47:01.312Z,3.90
2022-08-26T06:49:28.447Z,4.20
2022-08-26T06:51:59.141Z,3.90
2022-08-26T06:54:31.089Z,3.60
2022-08-26T06:56:58.914Z,4.00
2022-08-26T06:59:26.369Z,4.10
2022-08-26T07:01:54.396Z,4.20
2022-08-26T07:04:22.469Z,3.90
2022-08-26T07:09:27.360Z,4.20
2022-08-26T07:11:56.217Z,4.00
2022-08-26T07:14:24.768Z,4.00
2022-08-26T07:16:51.897Z,4.10
2022-08-26T07:19:31.092Z,4.00
2022-08-26T07:22:03.341Z,4.10
2022-08-26T07:24:34.982Z,4.90
2022-08-26T07:27:16.887Z,3.90
2022-08-26T07:29:44.852Z,3.80
2022-08-26T07:32:15.260Z,4.00
2022-08-26T07:34:43.001Z,4.50
2022-08-26T07:37:11.638Z,4.00
2022-08-26T07:39:40.473Z,4.50
2022-08-26T07:42:10.414Z,4.40
2022-08-26T07:44:39.346Z,4.50
2022-08-26T07:47:19.385Z,4.70
2022-08-26T07:49:57.207Z,4.20
2022-08-26T07:52:29.970Z,3.70
2022-08-26T07:55:00.731Z,3.90
2022-08-26T07:57:29.879Z,4.90
2022-08-26T07:59:58.661Z,4.40
2022-08-26T08:02:28.104Z,4.70
2022-08-26T08:04:57.369Z,4.60
2022-08-26T08:07:25.886Z,4.20
2022-08-26T08:10:20.829Z,4.20
2022-08-26T08:12:49.285Z,4.30
2022-08-26T08:15:20.365Z,4.40
2022-08-26T08:17:48.045Z,4.80
2022-08-26T08:20:19.765Z,4.40
2022-08-26T08:22:47.746Z,4.60
2022-08-26T08:25:15.757Z,4.10
2022-08-26T08:27:48.209Z,4.00
2022-08-26T08:30:20.875Z,4.10
2022-08-26T08:32:51.924Z,4.30
2022-08-26T08:35:23.532Z,4.20
2022-08-26T08:37:53.929Z,4.10
2022-08-26T08:40:24.603Z,4.40
2022-08-26T08:43:07.403Z,4.40
2022-08-26T08:45:48.560Z,4.40
2022-08-26T08:48:32.964Z,4.00
2022-08-26T08:51:39.414Z,4.00
2022-08-26T08:54:08.692Z,4.40
2022-08-26T08:57:20.260Z,4.40
2022-08-26T09:00:08.789Z,4.50
2022-08-26T09:03:01.205Z,4.40
2022-08-26T09:05:39.712Z,4.10
2022-08-26T09:08:17.404Z,4.40
2022-08-26T09:10:54.026Z,4.60
2022-08-26T09:13:26.171Z,4.60
2022-08-26T09:15:59.970Z,4.20
2022-08-26T09:18:51.242Z,4.80
2022-08-26T09:21:23.638Z,4.90
2022-08-26T09:23:55.437Z,4.60
2022-08-26T09:26:40.560Z,4.50
2022-08-26T09:29:18.441Z,4.20
2022-08-26T09:31:45.794Z,4.00
2022-08-26T09:34:17.790Z,4.10
2022-08-26T09:36:50.877Z,4.10
2022-08-26T09:39:23.669Z,4.50
2022-08-26T09:42:23.153Z,4.30
2022-08-26T09:45:07.923Z,3.90
2022-08-26T09:47:47.056Z,4.20
2022-08-26T09:50:54.474Z,4.70
2022-08-26T09:53:28.698Z,4.60
2022-08-26T09:56:16.095Z,4.20
2022-08-26T09:58:47.043Z,4.00
2022-08-26T10:01:33.174Z,4.10
2022-08-26T10:04:32.902Z,3.80
2022-08-26T10:07:05.197Z,4.30
2022-08-26T10:09:38.596Z,4.20
2022-08-26T10:12:20.738Z,4.70
2022-08-26T10:14:55.950Z,4.30
2022-08-26T10:17:47.381Z,4.80
2022-08-26T10:20:23.169Z,4.80
2022-08-26T10:23:09.002Z,4.20
2022-08-26T10:25:53.265Z,4.30
2022-08-26T10:28:54.636Z,4.10
2022-08-26T10:31:40.172Z,3.90
2022-08-26T10:34:10.083Z,4.30
2022-08-26T10:37:14.917Z,4.80
2022-08-26T10:39:57.014Z,4.00
2022-08-26T10:42:47.688Z,3.80
2022-08-26T10:45:19.657Z,4.30
2022-08-26T10:48:04.012Z,3.80
2022-08-26T10:50:44.885Z,3.90
2022-08-26T10:53:25.185Z,3.70
2022-08-26T10:56:15.727Z,4.50
2022-08-26T10:59:32.913Z,4.10
2022-08-26T11:02:26.238Z,3.90
2022-08-26T11:05:03.079Z,4.00
2022-08-26T11:07:45.724Z,4.60
2022-08-26T11:10:22.697Z,4.30
2022-08-26T11:13:04.873Z,4.00
2022-08-26T11:15:31.964Z,4.50
2022-08-26T11:18:03.865Z,4.20
2022-08-26T11:20:42.368Z,4.80
2022-08-26T11:23:13.021Z,4.90
2022-08-26T11:26:01.028Z,4.70
2022-08-26T11:28:44.025Z,4.20
2022-08-26T11:31:38.834Z,5.90
2022-08-26T11:34:13.225Z,5.70
2022-08-26T11:37:21.583Z,4.70
2022-08-26T11:40:05.101Z,4.90
2022-08-26T11:42:57.153Z,5.10
2022-08-26T11:45:44.934Z,4.80
2022-08-26T11:48:37.465Z,6.30
2022-08-26T11:53:12.017Z,5.40
2022-08-26T11:55:44.413Z,5.90
2022-08-26T11:58:12.706Z,6.00
2022-08-26T12:00:46.339Z,6.00
2022-08-26T12:03:25.525Z,5.80
2022-08-26T12:05:53.866Z,4.20
2022-08-26T12:08:27.980Z,5.60
2022-08-26T12:11:09.038Z,5.80
2022-08-26T12:13:38.574Z,6.20
2022-08-26T12:16:06.962Z,5.50
2022-08-26T12:18:38.627Z,5.60
2022-08-26T12:21:24.316Z,5.30
2022-08-26T12:23:55.772Z,5.50
2022-08-26T12:26:36.516Z,5.00
2022-08-26T12:29:20.208Z,5.60
2022-08-26T12:32:17.219Z,5.00
2022-08-26T12:34:48.582Z,6.90
2022-08-26T12:37:16.129Z,5.40
2022-08-26T12:39:47.317Z,5.60
2022-08-26T12:42:17.314Z,5.30
2022-08-26T12:44:59.567Z,5.40
2022-08-26T12:47:43.936Z,6.10
2022-08-26T12:50:27.044Z,5.80
2022-08-26T12:53:10.145Z,4.80
2022-08-26T12:55:55.626Z,5.60
2022-08-26T12:58:33.062Z,5.80
2022-08-26T13:01:06.304Z,5.60
2022-08-26T13:03:33.419Z,5.80
2022-08-26T13:06:23.176Z,6.00
2022-08-26T13:09:00.152Z,4.60
2022-08-26T13:11:33.005Z,6.00
2022-08-26T13:14:09.836Z,6.40
2022-08-26T13:16:40.995Z,6.80
2022-08-26T13:19:12.901Z,6.10
2022-08-26T13:21:53.325Z,6.30
2022-08-26T13:24:25.610Z,6.30
2022-08-26T13:26:53.077Z,6.90
2022-08-26T13:29:20.672Z,8.30
2022-08-26T13:31:48.296Z,6.70
2022-08-26T13:34:19.691Z,6.10
2022-08-26T13:36:53.638Z,6.80
2022-08-26T13:39:22.414Z,6.30
2022-08-26T13:41:49.954Z,7.30
2022-08-26T13:44:18.140Z,6.10
2022-08-26T13:49:17.986Z,6.70
2022-08-26T13:51:45.257Z,7.00
2022-08-26T13:54:12.660Z,6.90
2022-08-26T13:56:40.337Z,6.70
2022-08-26T13:59:07.440Z,5.40
2022-08-26T14:01:35.880Z,5.80
2022-08-26T14:04:03.850Z,6.30
2022-08-26T14:06:31.598Z,6.40
2022-08-26T14:08:58.947Z,7.30
2022-08-26T14:11:26.811Z,8.00
2022-08-26T14:13:54.060Z,7.20
2022-08-26T14:16:32.754Z,6.90
2022-08-26T14:19:01.780Z,7.40
2022-08-26T14:21:31.403Z,7.40
2022-08-26T14:24:00.962Z,7.40
2022-08-26T14:26:29.909Z,7.20
2022-08-26T14:28:59.329Z,7.40
2022-08-26T14:31:29.349Z,7.00
2022-08-26T14:34:02.089Z,7.60
2022-08-26T14:36:31.970Z,7.10
2022-08-26T14:39:11.786Z,6.80
2022-08-26T14:41:46.048Z,7.00
2022-08-26T14:44:27.461Z,7.30
2022-08-26T14:46:55.339Z,7.10
2022-08-26T14:49:24.702Z,6.50
2022-08-26T14:51:51.953Z,6.40
2022-08-26T14:54:20.742Z,6.80
2022-08-26T14:56:53.637Z,7.10
2022-08-26T14:59:28.460Z,6.60
2022-08-26T15:01:57.040Z,8.10
2022-08-26T15:04:24.796Z,8.20
2022-08-26T15:06:54.385Z,8.00
2022-08-26T15:09:23.200Z,7.50
2022-08-26T15:11:52.297Z,8.30
2022-08-26T15:14:20.464Z,7.80
2022-08-26T15:16:51.501Z,7.90
2022-08-26T15:19:20.010Z,7.90
2022-08-26T15:21:47.610Z,7.20
2022-08-26T15:24:20.843Z,7.80
2022-08-26T15:26:49.113Z,7.70
2022-08-26T15:29:16.877Z,8.00
2022-08-26T15:31:44.113Z,8.10
2022-08-26T15:34:16.401Z,7.20
2022-08-26T15:36:46.824Z,7.60
2022-08-26T15:39:16.848Z,7.00
2022-08-26T15:41:44.812Z,7.50
2022-08-26T15:44:13.725Z,7.50
2022-08-26T15:46:41.575Z,7.00
2022-08-26T15:49:09.065Z,7.80
2022-08-26T15:51:47.444Z,6.90
2022-08-26T15:54:16.305Z,7.80
2022-08-26T15:56:44.973Z,7.60
2022-08-26T15:59:12.373Z,7.60
2022-08-26T16:01:40.244Z,7.80
2022-08-26T16:04:07.494Z,6.50
2022-08-26T16:06:38.430Z,7.20
2022-08-26T16:09:06.528Z,7.50
2022-08-26T16:11:37.543Z,6.90
2022-08-26T16:14:05.308Z,7.40
2022-08-26T16:16:32.981Z,8.00
2022-08-26T16:19:05.626Z,7.40
2022-08-26T16:21:35.234Z,7.70
2022-08-26T16:24:03.446Z,7.70
2022-08-26T16:26:34.770Z,7.20
2022-08-26T16:29:06.054Z,6.50
2022-08-26T16:31:35.272Z,7.00
2022-08-26T16:34:02.572Z,6.50
2022-08-26T16:36:29.939Z,7.80
2022-08-26T16:38:57.177Z,7.60
2022-08-26T16:41:28.316Z,8.60
2022-08-26T16:43:55.972Z,7.60
2022-08-26T16:46:25.220Z,6.60
2022-08-26T16:48:54.787Z,7.50
2022-08-26T16:51:26.469Z,8.10
2022-08-26T16:53:55.819Z,6.70
2022-08-26T16:56:34.081Z,7.70
2022-08-26T16:59:05.740Z,7.40
2022-08-26T17:01:33.155Z,8.10
2022-08-26T17:04:00.547Z,7.90
2022-08-26T17:06:27.979Z,6.20
2022-08-26T17:08:55.114Z,7.70
2022-08-26T17:11:22.577Z,7.80
2022-08-26T17:13:50.039Z,7.00
2022-08-26T17:16:17.323Z,6.90
2022-08-26T17:18:44.428Z,7.90
2022-08-26T17:21:13.239Z,7.80
2022-08-26T17:23:42.330Z,7.00
2022-08-26T17:26:11.854Z,6.70
2022-08-26T17:28:40.130Z,7.30
2022-08-26T17:31:11.927Z,7.50
2022-08-26T17:33:40.375Z,6.90
2022-08-26T17:36:08.953Z,7.00
2022-08-26T17:38:37.710Z,7.70
2022-08-26T17:43:41.252Z,13.80
2022-08-26T17:46:11.108Z,13.40
2022-08-26T17:48:40.242Z,16.30
2022-08-26T17:51:16.333Z,17.20
2022-08-26T17:53:43.548Z,15.30
2022-08-26T17:56:13.303Z,14.10
2022-08-26T17:58:50.995Z,12.00
2022-08-26T18:01:25.617Z,8.60
2022-08-26T18:03:58.182Z,9.50
2022-08-26T18:06:30.011Z,7.50
2022-08-26T18:08:57.777Z,8.50
2022-08-26T18:11:25.021Z,8.90
2022-08-26T18:13:52.920Z,7.80
2022-08-26T18:16:20.995Z,6.60
2022-08-26T18:18:48.609Z,6.60
2022-08-26T18:21:18.901Z,7.70
2022-08-26T18:23:47.464Z,7.00
2022-08-26T18:26:24.890Z,6.40
2022-08-26T18:28:53.304Z,6.70
2022-08-26T18:31:21.070Z,6.00
2022-08-26T18:33:48.274Z,5.70
2022-08-26T18:36:36.974Z,6.00
2022-08-26T18:39:07.087Z,7.10
2022-08-26T18:41:44.346Z,7.40
2022-08-26T18:44:14.363Z,6.00
2022-08-26T18:46:42.856Z,6.80
2022-08-26T18:49:12.737Z,6.70
2022-08-26T18:51:41.364Z,6.80
2022-08-26T18:54:08.658Z,6.60
2022-08-26T18:56:37.854Z,7.90
2022-08-26T18:59:07.435Z,6.80
2022-08-26T19:01:36.830Z,7.40
2022-08-26T19:04:06.676Z,6.60
2022-08-26T19:06:35.694Z,7.60
2022-08-26T19:09:07.086Z,7.30
2022-08-26T19:11:41.715Z,6.40
2022-08-26T19:14:13.813Z,6.70
2022-08-26T19:16:48.150Z,7.40
2022-08-26T19:19:16.059Z,7.20
2022-08-26T19:21:43.816Z,6.50
2022-08-26T19:24:17.021Z,7.70
2022-08-26T19:26:51.422Z,8.50
2022-08-26T19:29:33.233Z,6.80
2022-08-26T19:32:01.795Z,6.40
2022-08-26T19:34:29.466Z,7.50
2022-08-26T19:36:58.162Z,7.40
2022-08-26T19:41:53.480Z,6.30
2022-08-26T19:44:41.156Z,5.80
2022-08-26T19:47:11.646Z,7.50
2022-08-26T19:49:38.993Z,7.60
2022-08-26T19:52:07.984Z,6.30
2022-08-26T19:54:35.768Z,6.60
2022-08-26T19:57:03.571Z,6.50
2022-08-26T19:59:32.717Z,6.20
2022-08-26T20:02:01.355Z,6.80
2022-08-26T20:04:30.998Z,6.10
2022-08-26T20:07:00.768Z,6.40
2022-08-26T20:09:30.257Z,4.80
2022-08-26T20:11:58.273Z,7.30
2022-08-26T20:14:29.637Z,5.80
2022-08-26T20:16:57.180Z,4.90
2022-08-26T20:19:42.809Z,4.70
2022-08-26T20:22:11.821Z,4.60
2022-08-26T20:24:39.356Z,4.50
2022-08-26T20:27:07.899Z,4.60
2022-08-26T20:29:37.335Z,6.20
2022-08-26T20:32:07.351Z,4.80
2022-08-26T20:34:36.652Z,4.90
2022-08-26T20:37:04.196Z,5.00
2022-08-26T20:39:31.345Z,4.90
2022-08-26T20:41:58.901Z,5.70
2022-08-26T20:44:26.362Z,5.00
2022-08-26T20:46:54.832Z,5.40
2022-08-26T20:49:22.300Z,5.30
2022-08-26T20:51:52.529Z,4.60
2022-08-26T20:54:28.062Z,3.90
2022-08-26T20:56:57.763Z,4.60
2022-08-26T20:59:26.230Z,4.30
2022-08-26T21:01:53.815Z,4.40
2022-08-26T21:04:25.014Z,4.80
2022-08-26T21:06:54.053Z,4.50
2022-08-26T21:09:23.721Z,5.60
2022-08-26T21:11:52.224Z,4.40
2022-08-26T21:14:20.162Z,5.30
2022-08-26T21:16:47.317Z,4.00
2022-08-26T21:19:17.892Z,4.50
2022-08-26T21:21:47.799Z,5.10
2022-08-26T21:24:15.972Z,5.30
2022-08-26T21:26:43.337Z,4.80
2022-08-26T21:29:10.687Z,3.90
2022-08-26T21:31:42.290Z,3.90
2022-08-26T21:34:14.094Z,4.50
2022-08-26T21:39:11.706Z,4.00
2022-08-26T21:41:42.719Z,4.80
2022-08-26T21:44:11.600Z,4.10
2022-08-26T21:49:09.598Z,4.00
2022-08-26T21:51:41.277Z,4.20
2022-08-26T21:54:11.292Z,4.10
2022-08-26T21:56:46.168Z,4.90
2022-08-26T21:59:18.488Z,4.40
2022-08-26T22:01:47.128Z,4.40
2022-08-26T22:04:15.738Z,4.20
2022-08-26T22:06:48.273Z,3.80
2022-08-26T22:09:20.466Z,5.00
2022-08-26T22:11:48.622Z,5.20
2022-08-26T22:14:17.633Z,4.80
2022-08-26T22:16:50.559Z,3.90
2022-08-26T22:19:20.624Z,4.80
2022-08-26T22:21:53.181Z,4.70
2022-08-26T22:24:24.464Z,4.60
2022-08-26T22:26:52.218Z,4.10
2022-08-26T22:29:20.101Z,4.60
2022-08-26T22:31:47.490Z,5.10
2022-08-26T22:34:16.945Z,4.60
2022-08-26T22:36:47.822Z,4.20
2022-08-26T22:39:19.854Z,4.50
2022-08-26T22:41:48.031Z,4.50
2022-08-26T22:44:17.005Z,3.80
2022-08-26T22:49:16.767Z,4.10
2022-08-26T22:51:45.632Z,4.20
2022-08-26T22:54:13.836Z,4.70
2022-08-26T22:56:41.600Z,4.30
2022-08-26T22:59:09.584Z,4.10
2022-08-26T23:01:40.290Z,3.90
2022-08-26T23:04:08.952Z,5.30
2022-08-26T23:06:39.527Z,3.70
2022-08-26T23:09:07.930Z,4.00
2022-08-26T23:11:35.538Z,4.30
2022-08-26T23:14:06.325Z,4.20
2022-08-26T23:16:39.226Z,4.90
2022-08-26T23:19:09.918Z,4.20
2022-08-26T23:21:38.369Z,4.30
2022-08-26T23:24:07.398Z,4.90
2022-08-26T23:26:35.331Z,4.80
2022-08-26T23:29:04.573Z,4.90
2022-08-26T23:31:32.271Z,4.60
2022-08-26T23:34:18.384Z,4.70
2022-08-26T23:36:45.765Z,4.70
2022-08-26T23:39:14.924Z,5.40
2022-08-26T23:41:42.487Z,4.60
2022-08-26T23:44:10.548Z,5.60
2022-08-26T23:46:38.197Z,4.80
2022-08-26T23:49:05.448Z,4.40
2022-08-26T23:51:51.253Z,5.40
2022-08-26T23:54:19.264Z,4.70
2022-08-26T23:56:46.997Z,5.10
2022-08-26T23:59:15.273Z,4.60
